<?xml version="1.0" encoding="UTF-8" standalone="no" ?><gpx xmlns="http://www.topografix.com/GPX/1/1" xmlns:gpxx="http://www.garmin.com/xmlschemas/GpxExtensions/v3" xmlns:gpxtrkx="http://www.garmin.com/xmlschemas/TrackStatsExtension/v1" xmlns:wptx1="http://www.garmin.com/xmlschemas/WaypointExtension/v1" xmlns:gpxtpx="http://www.garmin.com/xmlschemas/TrackPointExtension/v1" creator="Oregon 750t" version="1.1" xmlns:xsi="http://www.w3.org/2001/XMLSchema-instance" xsi:schemaLocation="http://www.topografix.com/GPX/1/1 http://www.topografix.com/GPX/1/1/gpx.xsd http://www.garmin.com/xmlschemas/GpxExtensions/v3 http://www8.garmin.com/xmlschemas/GpxExtensionsv3.xsd http://www.garmin.com/xmlschemas/TrackStatsExtension/v1 http://www8.garmin.com/xmlschemas/TrackStatsExtension.xsd http://www.garmin.com/xmlschemas/WaypointExtension/v1 http://www8.garmin.com/xmlschemas/WaypointExtensionv1.xsd http://www.garmin.com/xmlschemas/TrackPointExtension/v1 http://www.garmin.com/xmlschemas/TrackPointExtensionv1.xsd"><metadata><link href="http://www.garmin.com"><text>Garmin International</text></link><time>2021-10-14T13:04:36Z</time></metadata><trk><name>La marolle-9kms</name><extensions><gpxx:TrackExtension><gpxx:DisplayColor>Cyan</gpxx:DisplayColor></gpxx:TrackExtension><gpxtrkx:TrackStatsExtension><gpxtrkx:Distance>9087.000</gpxtrkx:Distance><gpxtrkx:TimerTime>7474</gpxtrkx:TimerTime><gpxtrkx:TotalElapsedTime>21822</gpxtrkx:TotalElapsedTime><gpxtrkx:MovingTime>7076</gpxtrkx:MovingTime><gpxtrkx:StoppedTime>397</gpxtrkx:StoppedTime><gpxtrkx:MovingSpeed>1.284</gpxtrkx:MovingSpeed><gpxtrkx:MaxSpeed>1.769</gpxtrkx:MaxSpeed><gpxtrkx:MaxElevation>108.470</gpxtrkx:MaxElevation><gpxtrkx:MinElevation>89.831</gpxtrkx:MinElevation><gpxtrkx:Ascent>29.000</gpxtrkx:Ascent><gpxtrkx:Descent>28.300</gpxtrkx:Descent><gpxtrkx:AvgAscentRate>0.017</gpxtrkx:AvgAscentRate><gpxtrkx:MaxAscentRate>0.037</gpxtrkx:MaxAscentRate><gpxtrkx:AvgDescentRate>0.018</gpxtrkx:AvgDescentRate><gpxtrkx:MaxDescentRate>-0.037</gpxtrkx:MaxDescentRate><gpxtrkx:Calories>69</gpxtrkx:Calories></gpxtrkx:TrackStatsExtension></extensions><trkseg><trkpt lat="47.5848297402" lon="1.7794374749"><ele>106.68</ele><time>2021-10-14T07:00:57Z</time></trkpt><trkpt lat="47.5848171674" lon="1.7794373073"><ele>106.98</ele><time>2021-10-14T07:00:59Z</time></trkpt><trkpt lat="47.5848716497" lon="1.7793956492"><ele>106.37</ele><time>2021-10-14T07:01:22Z</time></trkpt><trkpt lat="47.5848893356" lon="1.7793128360"><ele>106.69</ele><time>2021-10-14T07:01:35Z</time></trkpt><trkpt lat="47.5849584863" lon="1.7792576831"><ele>106.34</ele><time>2021-10-14T07:01:45Z</time></trkpt><trkpt lat="47.5850797724" lon="1.7791821621"><ele>106.10</ele><time>2021-10-14T07:01:54Z</time></trkpt><trkpt lat="47.5851726439" lon="1.7790621333"><ele>106.08</ele><time>2021-10-14T07:02:03Z</time></trkpt><trkpt lat="47.5852608215" lon="1.7789851036"><ele>106.08</ele><time>2021-10-14T07:02:12Z</time></trkpt><trkpt lat="47.5853628293" lon="1.7788796593"><ele>106.13</ele><time>2021-10-14T07:02:22Z</time></trkpt><trkpt lat="47.5854669325" lon="1.7786993645"><ele>106.18</ele><time>2021-10-14T07:02:34Z</time></trkpt><trkpt lat="47.5855547749" lon="1.7785514239"><ele>105.92</ele><time>2021-10-14T07:02:45Z</time></trkpt><trkpt lat="47.5856919028" lon="1.7783515155"><ele>105.82</ele><time>2021-10-14T07:03:03Z</time></trkpt><trkpt lat="47.5857479777" lon="1.7782755755"><ele>105.64</ele><time>2021-10-14T07:03:14Z</time></trkpt><trkpt lat="47.5858085789" lon="1.7781697959"><ele>105.67</ele><time>2021-10-14T07:03:23Z</time></trkpt><trkpt lat="47.5858245045" lon="1.7781304009"><ele>105.67</ele><time>2021-10-14T07:03:26Z</time></trkpt><trkpt lat="47.5858338084" lon="1.7781188339"><ele>105.67</ele><time>2021-10-14T07:03:27Z</time></trkpt><trkpt lat="47.5859707687" lon="1.7779091187"><ele>105.58</ele><time>2021-10-14T07:03:44Z</time></trkpt><trkpt lat="47.5860497262" lon="1.7777998187"><ele>105.42</ele><time>2021-10-14T07:03:52Z</time></trkpt><trkpt lat="47.5861425977" lon="1.7776423227"><ele>105.45</ele><time>2021-10-14T07:04:03Z</time></trkpt><trkpt lat="47.5862208847" lon="1.7774605192"><ele>105.34</ele><time>2021-10-14T07:04:16Z</time></trkpt><trkpt lat="47.5863564201" lon="1.7771461979"><ele>105.11</ele><time>2021-10-14T07:04:36Z</time></trkpt><trkpt lat="47.5864751078" lon="1.7769647297"><ele>105.16</ele><time>2021-10-14T07:04:52Z</time></trkpt><trkpt lat="47.5865699910" lon="1.7768054735"><ele>104.81</ele><time>2021-10-14T07:05:05Z</time></trkpt><trkpt lat="47.5866343640" lon="1.7766635679"><ele>104.86</ele><time>2021-10-14T07:05:13Z</time></trkpt><trkpt lat="47.5867923629" lon="1.7764362507"><ele>104.81</ele><time>2021-10-14T07:05:29Z</time></trkpt><trkpt lat="47.5869370345" lon="1.7761944328"><ele>104.96</ele><time>2021-10-14T07:05:47Z</time></trkpt><trkpt lat="47.5871214364" lon="1.7759293132"><ele>105.10</ele><time>2021-10-14T07:06:08Z</time></trkpt><trkpt lat="47.5872205943" lon="1.7757813726"><ele>105.26</ele><time>2021-10-14T07:06:24Z</time></trkpt><trkpt lat="47.5872539543" lon="1.7756916862"><ele>105.40</ele><time>2021-10-14T07:06:35Z</time></trkpt><trkpt lat="47.5872610789" lon="1.7756786942"><ele>105.42</ele><time>2021-10-14T07:06:36Z</time></trkpt><trkpt lat="47.5872692931" lon="1.7756639421"><ele>105.43</ele><time>2021-10-14T07:06:37Z</time></trkpt><trkpt lat="47.5872768369" lon="1.7756491061"><ele>105.44</ele><time>2021-10-14T07:06:38Z</time></trkpt><trkpt lat="47.5872826204" lon="1.7756328452"><ele>105.44</ele><time>2021-10-14T07:06:39Z</time></trkpt><trkpt lat="47.5872937683" lon="1.7756203562"><ele>105.44</ele><time>2021-10-14T07:06:40Z</time></trkpt><trkpt lat="47.5873019826" lon="1.7756071966"><ele>105.44</ele><time>2021-10-14T07:06:41Z</time></trkpt><trkpt lat="47.5873085205" lon="1.7755964678"><ele>105.44</ele><time>2021-10-14T07:06:42Z</time></trkpt><trkpt lat="47.5875087641" lon="1.7753071245"><ele>105.83</ele><time>2021-10-14T07:07:06Z</time></trkpt><trkpt lat="47.5876434613" lon="1.7751254886"><ele>105.95</ele><time>2021-10-14T07:07:25Z</time></trkpt><trkpt lat="47.5876723789" lon="1.7750534043"><ele>105.97</ele><time>2021-10-14T07:07:30Z</time></trkpt><trkpt lat="47.5877806731" lon="1.7748237401"><ele>105.96</ele><time>2021-10-14T07:07:46Z</time></trkpt><trkpt lat="47.5878666714" lon="1.7746534199"><ele>106.04</ele><time>2021-10-14T07:07:57Z</time></trkpt><trkpt lat="47.5878710300" lon="1.7746322136"><ele>106.05</ele><time>2021-10-14T07:07:58Z</time></trkpt><trkpt lat="47.5878603850" lon="1.7745859455"><ele>105.95</ele><time>2021-10-14T07:08:02Z</time></trkpt><trkpt lat="47.5877270289" lon="1.7743318900"><ele>105.86</ele><time>2021-10-14T07:08:19Z</time></trkpt><trkpt lat="47.5876210816" lon="1.7740700394"><ele>105.82</ele><time>2021-10-14T07:08:35Z</time></trkpt><trkpt lat="47.5876056589" lon="1.7740262859"><ele>105.82</ele><time>2021-10-14T07:08:39Z</time></trkpt><trkpt lat="47.5874477439" lon="1.7737278063"><ele>105.98</ele><time>2021-10-14T07:08:59Z</time></trkpt><trkpt lat="47.5872967020" lon="1.7734652851"><ele>105.72</ele><time>2021-10-14T07:09:19Z</time></trkpt><trkpt lat="47.5871521141" lon="1.7731784564"><ele>105.73</ele><time>2021-10-14T07:09:39Z</time></trkpt><trkpt lat="47.5869936123" lon="1.7729716748"><ele>105.64</ele><time>2021-10-14T07:09:58Z</time></trkpt><trkpt lat="47.5868125632" lon="1.7727244087"><ele>105.39</ele><time>2021-10-14T07:10:18Z</time></trkpt><trkpt lat="47.5866536424" lon="1.7725113407"><ele>105.40</ele><time>2021-10-14T07:10:36Z</time></trkpt><trkpt lat="47.5864844117" lon="1.7722600512"><ele>105.17</ele><time>2021-10-14T07:10:56Z</time></trkpt><trkpt lat="47.5864093937" lon="1.7721308023"><ele>105.14</ele><time>2021-10-14T07:11:07Z</time></trkpt><trkpt lat="47.5863161869" lon="1.7719971947"><ele>105.11</ele><time>2021-10-14T07:11:17Z</time></trkpt><trkpt lat="47.5862379838" lon="1.7718720529"><ele>105.26</ele><time>2021-10-14T07:11:27Z</time></trkpt><trkpt lat="47.5860703457" lon="1.7716372758"><ele>105.16</ele><time>2021-10-14T07:11:43Z</time></trkpt><trkpt lat="47.5859037135" lon="1.7713493574"><ele>104.98</ele><time>2021-10-14T07:12:03Z</time></trkpt><trkpt lat="47.5857571140" lon="1.7711139098"><ele>104.74</ele><time>2021-10-14T07:12:21Z</time></trkpt><trkpt lat="47.5856079161" lon="1.7709504627"><ele>104.56</ele><time>2021-10-14T07:12:37Z</time></trkpt><trkpt lat="47.5854517613" lon="1.7707114108"><ele>104.22</ele><time>2021-10-14T07:12:54Z</time></trkpt><trkpt lat="47.5853666849" lon="1.7705549207"><ele>104.16</ele><time>2021-10-14T07:13:05Z</time></trkpt><trkpt lat="47.5853432156" lon="1.7704724427"><ele>104.01</ele><time>2021-10-14T07:13:11Z</time></trkpt><trkpt lat="47.5852966122" lon="1.7700831033"><ele>103.69</ele><time>2021-10-14T07:13:31Z</time></trkpt><trkpt lat="47.5852694549" lon="1.7697365955"><ele>103.49</ele><time>2021-10-14T07:13:50Z</time></trkpt><trkpt lat="47.5852019805" lon="1.7694149818"><ele>103.44</ele><time>2021-10-14T07:14:09Z</time></trkpt><trkpt lat="47.5851423014" lon="1.7690614332"><ele>103.42</ele><time>2021-10-14T07:14:28Z</time></trkpt><trkpt lat="47.5850922614" lon="1.7687395681"><ele>103.27</ele><time>2021-10-14T07:14:48Z</time></trkpt><trkpt lat="47.5850332528" lon="1.7683975026"><ele>103.13</ele><time>2021-10-14T07:15:06Z</time></trkpt><trkpt lat="47.5849916786" lon="1.7680768948"><ele>103.33</ele><time>2021-10-14T07:15:24Z</time></trkpt><trkpt lat="47.5849521998" lon="1.7679476459"><ele>103.46</ele><time>2021-10-14T07:15:33Z</time></trkpt><trkpt lat="47.5848913472" lon="1.7677104380"><ele>103.73</ele><time>2021-10-14T07:15:47Z</time></trkpt><trkpt lat="47.5848525390" lon="1.7674966995"><ele>103.89</ele><time>2021-10-14T07:16:01Z</time></trkpt><trkpt lat="47.5847934466" lon="1.7673065141"><ele>103.75</ele><time>2021-10-14T07:16:13Z</time></trkpt><trkpt lat="47.5847691391" lon="1.7670523748"><ele>103.53</ele><time>2021-10-14T07:16:26Z</time></trkpt><trkpt lat="47.5847407244" lon="1.7668162566"><ele>103.40</ele><time>2021-10-14T07:16:38Z</time></trkpt><trkpt lat="47.5846858229" lon="1.7664967384"><ele>102.96</ele><time>2021-10-14T07:16:57Z</time></trkpt><trkpt lat="47.5846020877" lon="1.7662480474"><ele>102.76</ele><time>2021-10-14T07:17:10Z</time></trkpt><trkpt lat="47.5845341105" lon="1.7659785692"><ele>102.56</ele><time>2021-10-14T07:17:27Z</time></trkpt><trkpt lat="47.5844911113" lon="1.7656995356"><ele>102.26</ele><time>2021-10-14T07:17:44Z</time></trkpt><trkpt lat="47.5844546501" lon="1.7655047402"><ele>102.24</ele><time>2021-10-14T07:17:58Z</time></trkpt><trkpt lat="47.5844207034" lon="1.7653019819"><ele>102.37</ele><time>2021-10-14T07:18:09Z</time></trkpt><trkpt lat="47.5844048616" lon="1.7651152331"><ele>102.47</ele><time>2021-10-14T07:18:21Z</time></trkpt><trkpt lat="47.5843645446" lon="1.7649299931"><ele>102.59</ele><time>2021-10-14T07:18:32Z</time></trkpt><trkpt lat="47.5842722598" lon="1.7645026837"><ele>103.04</ele><time>2021-10-14T07:18:52Z</time></trkpt><trkpt lat="47.5842094794" lon="1.7641215585"><ele>102.41</ele><time>2021-10-14T07:19:16Z</time></trkpt><trkpt lat="47.5841155183" lon="1.7637051456"><ele>101.72</ele><time>2021-10-14T07:19:38Z</time></trkpt><trkpt lat="47.5840544142" lon="1.7633361742"><ele>101.12</ele><time>2021-10-14T07:19:58Z</time></trkpt><trkpt lat="47.5839836709" lon="1.7630111240"><ele>100.87</ele><time>2021-10-14T07:20:17Z</time></trkpt><trkpt lat="47.5838455372" lon="1.7627075315"><ele>100.93</ele><time>2021-10-14T07:20:37Z</time></trkpt><trkpt lat="47.5837014522" lon="1.7624513805"><ele>100.93</ele><time>2021-10-14T07:20:55Z</time></trkpt><trkpt lat="47.5835635699" lon="1.7622200400"><ele>100.93</ele><time>2021-10-14T07:21:13Z</time></trkpt><trkpt lat="47.5833897293" lon="1.7619535793"><ele>100.77</ele><time>2021-10-14T07:21:33Z</time></trkpt><trkpt lat="47.5831865519" lon="1.7615813389"><ele>100.52</ele><time>2021-10-14T07:21:58Z</time></trkpt><trkpt lat="47.5830597337" lon="1.7613469809"><ele>100.51</ele><time>2021-10-14T07:22:13Z</time></trkpt><trkpt lat="47.5829226896" lon="1.7611241061"><ele>100.51</ele><time>2021-10-14T07:22:29Z</time></trkpt><trkpt lat="47.5828549638" lon="1.7609593179"><ele>100.53</ele><time>2021-10-14T07:22:41Z</time></trkpt><trkpt lat="47.5828070194" lon="1.7608194239"><ele>100.65</ele><time>2021-10-14T07:22:49Z</time></trkpt><trkpt lat="47.5828009844" lon="1.7607962061"><ele>100.65</ele><time>2021-10-14T07:22:50Z</time></trkpt><trkpt lat="47.5827905908" lon="1.7603901867"><ele>100.00</ele><time>2021-10-14T07:23:10Z</time></trkpt><trkpt lat="47.5827775989" lon="1.7600722611"><ele>99.39</ele><time>2021-10-14T07:23:26Z</time></trkpt><trkpt lat="47.5827614218" lon="1.7598089855"><ele>99.03</ele><time>2021-10-14T07:23:43Z</time></trkpt><trkpt lat="47.5827249605" lon="1.7595155351"><ele>98.52</ele><time>2021-10-14T07:24:00Z</time></trkpt><trkpt lat="47.5827107951" lon="1.7592109367"><ele>98.04</ele><time>2021-10-14T07:24:16Z</time></trkpt><trkpt lat="47.5826926064" lon="1.7589054164"><ele>97.01</ele><time>2021-10-14T07:24:34Z</time></trkpt><trkpt lat="47.5826681312" lon="1.7586222757"><ele>96.63</ele><time>2021-10-14T07:24:50Z</time></trkpt><trkpt lat="47.5826426502" lon="1.7583635263"><ele>96.18</ele><time>2021-10-14T07:25:05Z</time></trkpt><trkpt lat="47.5826252159" lon="1.7581188586"><ele>96.01</ele><time>2021-10-14T07:25:19Z</time></trkpt><trkpt lat="47.5826109666" lon="1.7577877734"><ele>95.87</ele><time>2021-10-14T07:25:36Z</time></trkpt><trkpt lat="47.5825854857" lon="1.7574441154"><ele>95.58</ele><time>2021-10-14T07:25:54Z</time></trkpt><trkpt lat="47.5825480185" lon="1.7570516746"><ele>95.29</ele><time>2021-10-14T07:26:14Z</time></trkpt><trkpt lat="47.5825110544" lon="1.7566946894"><ele>94.88</ele><time>2021-10-14T07:26:33Z</time></trkpt><trkpt lat="47.5824926980" lon="1.7564168293"><ele>94.37</ele><time>2021-10-14T07:26:49Z</time></trkpt><trkpt lat="47.5824570749" lon="1.7560484447"><ele>93.96</ele><time>2021-10-14T07:27:09Z</time></trkpt><trkpt lat="47.5824237149" lon="1.7556627095"><ele>93.64</ele><time>2021-10-14T07:27:30Z</time></trkpt><trkpt lat="47.5823873375" lon="1.7553807423"><ele>93.42</ele><time>2021-10-14T07:27:46Z</time></trkpt><trkpt lat="47.5823483616" lon="1.7550344020"><ele>93.37</ele><time>2021-10-14T07:28:04Z</time></trkpt><trkpt lat="47.5823067874" lon="1.7546982877"><ele>93.03</ele><time>2021-10-14T07:28:23Z</time></trkpt><trkpt lat="47.5822592620" lon="1.7544693779"><ele>92.80</ele><time>2021-10-14T07:28:36Z</time></trkpt><trkpt lat="47.5821502134" lon="1.7541945353"><ele>92.45</ele><time>2021-10-14T07:28:53Z</time></trkpt><trkpt lat="47.5820430927" lon="1.7539538909"><ele>92.58</ele><time>2021-10-14T07:29:09Z</time></trkpt><trkpt lat="47.5819430128" lon="1.7537342850"><ele>92.66</ele><time>2021-10-14T07:29:26Z</time></trkpt><trkpt lat="47.5818371493" lon="1.7534063011"><ele>92.18</ele><time>2021-10-14T07:29:46Z</time></trkpt><trkpt lat="47.5817438588" lon="1.7530989368"><ele>91.54</ele><time>2021-10-14T07:30:04Z</time></trkpt><trkpt lat="47.5816918910" lon="1.7529575340"><ele>91.41</ele><time>2021-10-14T07:30:12Z</time></trkpt><trkpt lat="47.5815970916" lon="1.7527029756"><ele>91.20</ele><time>2021-10-14T07:30:29Z</time></trkpt><trkpt lat="47.5815322157" lon="1.7523959465"><ele>91.07</ele><time>2021-10-14T07:30:48Z</time></trkpt><trkpt lat="47.5814795773" lon="1.7521232832"><ele>91.03</ele><time>2021-10-14T07:31:03Z</time></trkpt><trkpt lat="47.5814669207" lon="1.7520790268"><ele>91.04</ele><time>2021-10-14T07:31:05Z</time></trkpt><trkpt lat="47.5813984405" lon="1.7517702375"><ele>91.28</ele><time>2021-10-14T07:31:21Z</time></trkpt><trkpt lat="47.5813516695" lon="1.7515457701"><ele>91.30</ele><time>2021-10-14T07:31:35Z</time></trkpt><trkpt lat="47.5812960975" lon="1.7512828298"><ele>91.31</ele><time>2021-10-14T07:31:51Z</time></trkpt><trkpt lat="47.5811831933" lon="1.7510266788"><ele>91.45</ele><time>2021-10-14T07:32:09Z</time></trkpt><trkpt lat="47.5809612405" lon="1.7506984435"><ele>92.36</ele><time>2021-10-14T07:32:33Z</time></trkpt><trkpt lat="47.5807914231" lon="1.7504280433"><ele>92.82</ele><time>2021-10-14T07:32:53Z</time></trkpt><trkpt lat="47.5806121342" lon="1.7500848882"><ele>93.95</ele><time>2021-10-14T07:33:17Z</time></trkpt><trkpt lat="47.5804576557" lon="1.7498429026"><ele>93.33</ele><time>2021-10-14T07:33:38Z</time></trkpt><trkpt lat="47.5802911073" lon="1.7495832313"><ele>92.90</ele><time>2021-10-14T07:33:56Z</time></trkpt><trkpt lat="47.5801603496" lon="1.7493088078"><ele>92.33</ele><time>2021-10-14T07:34:14Z</time></trkpt><trkpt lat="47.5799790490" lon="1.7490149383"><ele>92.09</ele><time>2021-10-14T07:34:40Z</time></trkpt><trkpt lat="47.5798325334" lon="1.7486278620"><ele>92.20</ele><time>2021-10-14T07:35:04Z</time></trkpt><trkpt lat="47.5797165278" lon="1.7483408656"><ele>92.22</ele><time>2021-10-14T07:35:24Z</time></trkpt><trkpt lat="47.5795577746" lon="1.7479411326"><ele>91.36</ele><time>2021-10-14T07:35:49Z</time></trkpt><trkpt lat="47.5793892983" lon="1.7476097960"><ele>90.97</ele><time>2021-10-14T07:36:12Z</time></trkpt><trkpt lat="47.5792594627" lon="1.7472974025"><ele>90.89</ele><time>2021-10-14T07:36:33Z</time></trkpt><trkpt lat="47.5791382603" lon="1.7470227275"><ele>91.58</ele><time>2021-10-14T07:36:53Z</time></trkpt><trkpt lat="47.5790450536" lon="1.7468166165"><ele>91.31</ele><time>2021-10-14T07:37:04Z</time></trkpt><trkpt lat="47.5790028088" lon="1.7467084900"><ele>90.79</ele><time>2021-10-14T07:37:13Z</time></trkpt><trkpt lat="47.5788942631" lon="1.7465245072"><ele>90.60</ele><time>2021-10-14T07:37:27Z</time></trkpt><trkpt lat="47.5787776709" lon="1.7463644128"><ele>90.47</ele><time>2021-10-14T07:37:40Z</time></trkpt><trkpt lat="47.5786376931" lon="1.7460440565"><ele>90.47</ele><time>2021-10-14T07:38:00Z</time></trkpt><trkpt lat="47.5785504375" lon="1.7457866482"><ele>90.67</ele><time>2021-10-14T07:38:18Z</time></trkpt><trkpt lat="47.5785510242" lon="1.7457604129"><ele>90.63</ele><time>2021-10-14T07:38:34Z</time></trkpt><trkpt lat="47.5784918480" lon="1.7456325050"><ele>90.63</ele><time>2021-10-14T07:39:02Z</time></trkpt><trkpt lat="47.5784412213" lon="1.7456798628"><ele>90.63</ele><time>2021-10-14T07:39:34Z</time></trkpt><trkpt lat="47.5784736592" lon="1.7456579860"><ele>90.63</ele><time>2021-10-14T07:40:02Z</time></trkpt><trkpt lat="47.5785138924" lon="1.7456087843"><ele>90.63</ele><time>2021-10-14T07:40:28Z</time></trkpt><trkpt lat="47.5784786046" lon="1.7456211895"><ele>90.63</ele><time>2021-10-14T07:41:00Z</time></trkpt><trkpt lat="47.5784895848" lon="1.7454839777"><ele>90.63</ele><time>2021-10-14T07:41:30Z</time></trkpt><trkpt lat="47.5785308238" lon="1.7452272400"><ele>90.63</ele><time>2021-10-14T07:41:51Z</time></trkpt><trkpt lat="47.5786187500" lon="1.7450704146"><ele>90.63</ele><time>2021-10-14T07:42:02Z</time></trkpt><trkpt lat="47.5787003059" lon="1.7448139284"><ele>90.73</ele><time>2021-10-14T07:42:21Z</time></trkpt><trkpt lat="47.5788171496" lon="1.7446110025"><ele>90.78</ele><time>2021-10-14T07:42:36Z</time></trkpt><trkpt lat="47.5789470691" lon="1.7443094216"><ele>90.90</ele><time>2021-10-14T07:42:57Z</time></trkpt><trkpt lat="47.5790657569" lon="1.7440917436"><ele>90.72</ele><time>2021-10-14T07:43:13Z</time></trkpt><trkpt lat="47.5792328082" lon="1.7439371813"><ele>90.84</ele><time>2021-10-14T07:43:32Z</time></trkpt><trkpt lat="47.5794127677" lon="1.7438034900"><ele>91.37</ele><time>2021-10-14T07:43:48Z</time></trkpt><trkpt lat="47.5795700960" lon="1.7436804436"><ele>91.40</ele><time>2021-10-14T07:44:02Z</time></trkpt><trkpt lat="47.5797711778" lon="1.7435525358"><ele>91.71</ele><time>2021-10-14T07:44:20Z</time></trkpt><trkpt lat="47.5799539033" lon="1.7434491869"><ele>91.66</ele><time>2021-10-14T07:44:36Z</time></trkpt><trkpt lat="47.5800324418" lon="1.7434205208"><ele>91.58</ele><time>2021-10-14T07:44:42Z</time></trkpt><trkpt lat="47.5800467748" lon="1.7434126418"><ele>91.58</ele><time>2021-10-14T07:44:43Z</time></trkpt><trkpt lat="47.5800613593" lon="1.7434034217"><ele>91.58</ele><time>2021-10-14T07:44:44Z</time></trkpt><trkpt lat="47.5800749380" lon="1.7433971353"><ele>91.58</ele><time>2021-10-14T07:44:45Z</time></trkpt><trkpt lat="47.5800880976" lon="1.7433891725"><ele>91.55</ele><time>2021-10-14T07:44:46Z</time></trkpt><trkpt lat="47.5801012572" lon="1.7433822155"><ele>91.50</ele><time>2021-10-14T07:44:47Z</time></trkpt><trkpt lat="47.5801159255" lon="1.7433793657"><ele>91.45</ele><time>2021-10-14T07:44:48Z</time></trkpt><trkpt lat="47.5801288337" lon="1.7433754262"><ele>91.42</ele><time>2021-10-14T07:44:49Z</time></trkpt><trkpt lat="47.5801424962" lon="1.7433688045"><ele>91.41</ele><time>2021-10-14T07:44:50Z</time></trkpt><trkpt lat="47.5801549014" lon="1.7433648650"><ele>91.41</ele><time>2021-10-14T07:44:51Z</time></trkpt><trkpt lat="47.5801665522" lon="1.7433599196"><ele>91.43</ele><time>2021-10-14T07:44:52Z</time></trkpt><trkpt lat="47.5803523790" lon="1.7433062755"><ele>91.28</ele><time>2021-10-14T07:45:09Z</time></trkpt><trkpt lat="47.5805886649" lon="1.7432778608"><ele>91.36</ele><time>2021-10-14T07:45:31Z</time></trkpt><trkpt lat="47.5808119588" lon="1.7432820518"><ele>91.31</ele><time>2021-10-14T07:45:51Z</time></trkpt><trkpt lat="47.5809539482" lon="1.7433325946"><ele>91.31</ele><time>2021-10-14T07:46:01Z</time></trkpt><trkpt lat="47.5809644256" lon="1.7433406413"><ele>91.32</ele><time>2021-10-14T07:46:02Z</time></trkpt><trkpt lat="47.5811650883" lon="1.7434403859"><ele>91.15</ele><time>2021-10-14T07:46:20Z</time></trkpt><trkpt lat="47.5813445449" lon="1.7435034178"><ele>90.98</ele><time>2021-10-14T07:46:36Z</time></trkpt><trkpt lat="47.5816021208" lon="1.7435329221"><ele>90.97</ele><time>2021-10-14T07:46:58Z</time></trkpt><trkpt lat="47.5816482212" lon="1.7435114644"><ele>90.94</ele><time>2021-10-14T07:47:02Z</time></trkpt><trkpt lat="47.5817646459" lon="1.7433142383"><ele>91.19</ele><time>2021-10-14T07:47:17Z</time></trkpt><trkpt lat="47.5819411688" lon="1.7431790382"><ele>91.47</ele><time>2021-10-14T07:47:38Z</time></trkpt><trkpt lat="47.5822257344" lon="1.7429679818"><ele>91.95</ele><time>2021-10-14T07:48:01Z</time></trkpt><trkpt lat="47.5824771915" lon="1.7428265791"><ele>92.52</ele><time>2021-10-14T07:48:24Z</time></trkpt><trkpt lat="47.5827090349" lon="1.7426536605"><ele>93.07</ele><time>2021-10-14T07:48:46Z</time></trkpt><trkpt lat="47.5829914212" lon="1.7424480524"><ele>93.40</ele><time>2021-10-14T07:49:11Z</time></trkpt><trkpt lat="47.5832577981" lon="1.7422723677"><ele>93.68</ele><time>2021-10-14T07:49:35Z</time></trkpt><trkpt lat="47.5835295394" lon="1.7420879658"><ele>94.19</ele><time>2021-10-14T07:49:59Z</time></trkpt><trkpt lat="47.5837454572" lon="1.7419510894"><ele>94.51</ele><time>2021-10-14T07:50:20Z</time></trkpt><trkpt lat="47.5839594472" lon="1.7418189067"><ele>94.77</ele><time>2021-10-14T07:50:38Z</time></trkpt><trkpt lat="47.5841985829" lon="1.7417293880"><ele>94.97</ele><time>2021-10-14T07:50:58Z</time></trkpt><trkpt lat="47.5844305940" lon="1.7417265382"><ele>95.07</ele><time>2021-10-14T07:51:19Z</time></trkpt><trkpt lat="47.5846843142" lon="1.7417357583"><ele>95.49</ele><time>2021-10-14T07:51:42Z</time></trkpt><trkpt lat="47.5849323347" lon="1.7417091038"><ele>95.71</ele><time>2021-10-14T07:52:04Z</time></trkpt><trkpt lat="47.5851713028" lon="1.7417155579"><ele>95.65</ele><time>2021-10-14T07:52:25Z</time></trkpt><trkpt lat="47.5854878873" lon="1.7417363450"><ele>96.18</ele><time>2021-10-14T07:52:50Z</time></trkpt><trkpt lat="47.5857642386" lon="1.7417850439"><ele>96.41</ele><time>2021-10-14T07:53:11Z</time></trkpt><trkpt lat="47.5860305317" lon="1.7417958565"><ele>96.61</ele><time>2021-10-14T07:53:33Z</time></trkpt><trkpt lat="47.5862968247" lon="1.7418334074"><ele>96.60</ele><time>2021-10-14T07:53:53Z</time></trkpt><trkpt lat="47.5864045322" lon="1.7418435495"><ele>96.81</ele><time>2021-10-14T07:54:01Z</time></trkpt><trkpt lat="47.5866086315" lon="1.7418466508"><ele>97.15</ele><time>2021-10-14T07:54:17Z</time></trkpt><trkpt lat="47.5868430734" lon="1.7418324016"><ele>97.62</ele><time>2021-10-14T07:54:39Z</time></trkpt><trkpt lat="47.5871071033" lon="1.7418442201"><ele>97.75</ele><time>2021-10-14T07:55:00Z</time></trkpt><trkpt lat="47.5873760786" lon="1.7418762390"><ele>98.23</ele><time>2021-10-14T07:55:24Z</time></trkpt><trkpt lat="47.5876578782" lon="1.7418880574"><ele>98.33</ele><time>2021-10-14T07:55:47Z</time></trkpt><trkpt lat="47.5878566969" lon="1.7418953497"><ele>98.41</ele><time>2021-10-14T07:56:04Z</time></trkpt><trkpt lat="47.5881150272" lon="1.7419253569"><ele>98.65</ele><time>2021-10-14T07:56:24Z</time></trkpt><trkpt lat="47.5883767102" lon="1.7419417016"><ele>98.88</ele><time>2021-10-14T07:56:47Z</time></trkpt><trkpt lat="47.5885435101" lon="1.7419786658"><ele>99.08</ele><time>2021-10-14T07:57:03Z</time></trkpt><trkpt lat="47.5887630321" lon="1.7419752292"><ele>99.20</ele><time>2021-10-14T07:57:21Z</time></trkpt><trkpt lat="47.5890376233" lon="1.7420056555"><ele>99.39</ele><time>2021-10-14T07:57:42Z</time></trkpt><trkpt lat="47.5892691314" lon="1.7419996206"><ele>99.62</ele><time>2021-10-14T07:58:01Z</time></trkpt><trkpt lat="47.5894894078" lon="1.7420227546"><ele>99.82</ele><time>2021-10-14T07:58:21Z</time></trkpt><trkpt lat="47.5896907412" lon="1.7420496605"><ele>100.05</ele><time>2021-10-14T07:58:42Z</time></trkpt><trkpt lat="47.5897731353" lon="1.7419850361"><ele>100.23</ele><time>2021-10-14T07:59:15Z</time></trkpt><trkpt lat="47.5897740573" lon="1.7419593874"><ele>100.15</ele><time>2021-10-14T07:59:47Z</time></trkpt><trkpt lat="47.5897589698" lon="1.7419993691"><ele>100.15</ele><time>2021-10-14T08:00:16Z</time></trkpt><trkpt lat="47.5897536054" lon="1.7420163006"><ele>100.15</ele><time>2021-10-14T08:00:17Z</time></trkpt><trkpt lat="47.5897482410" lon="1.7420488223"><ele>100.22</ele><time>2021-10-14T08:00:45Z</time></trkpt><trkpt lat="47.5897550303" lon="1.7420750577"><ele>100.24</ele><time>2021-10-14T08:01:11Z</time></trkpt><trkpt lat="47.5896644220" lon="1.7420976888"><ele>100.07</ele><time>2021-10-14T08:01:40Z</time></trkpt><trkpt lat="47.5897074211" lon="1.7420571204"><ele>100.07</ele><time>2021-10-14T08:02:11Z</time></trkpt><trkpt lat="47.5897576287" lon="1.7420305498"><ele>100.07</ele><time>2021-10-14T08:02:47Z</time></trkpt><trkpt lat="47.5897534378" lon="1.7420872953"><ele>100.07</ele><time>2021-10-14T08:03:19Z</time></trkpt><trkpt lat="47.5897412840" lon="1.7421566136"><ele>100.07</ele><time>2021-10-14T08:03:51Z</time></trkpt><trkpt lat="47.5897215866" lon="1.7421446275"><ele>100.07</ele><time>2021-10-14T08:04:20Z</time></trkpt><trkpt lat="47.5897683576" lon="1.7421610560"><ele>100.07</ele><time>2021-10-14T08:04:51Z</time></trkpt><trkpt lat="47.5897431280" lon="1.7421555240"><ele>100.07</ele><time>2021-10-14T08:05:20Z</time></trkpt><trkpt lat="47.5897575449" lon="1.7421003710"><ele>100.07</ele><time>2021-10-14T08:05:48Z</time></trkpt><trkpt lat="47.5897371769" lon="1.7420797516"><ele>100.07</ele><time>2021-10-14T08:06:22Z</time></trkpt><trkpt lat="47.5897193234" lon="1.7421119381"><ele>100.07</ele><time>2021-10-14T08:06:55Z</time></trkpt><trkpt lat="47.5897444692" lon="1.7420942523"><ele>100.07</ele><time>2021-10-14T08:07:31Z</time></trkpt><trkpt lat="47.5897541922" lon="1.7420901451"><ele>100.07</ele><time>2021-10-14T08:07:56Z</time></trkpt><trkpt lat="47.5897927489" lon="1.7420834396"><ele>100.07</ele><time>2021-10-14T08:08:22Z</time></trkpt><trkpt lat="47.5897758175" lon="1.7420790810"><ele>100.07</ele><time>2021-10-14T08:08:26Z</time></trkpt><trkpt lat="47.5897502527" lon="1.7420089245"><ele>100.07</ele><time>2021-10-14T08:08:57Z</time></trkpt><trkpt lat="47.5897322316" lon="1.7420625687"><ele>100.07</ele><time>2021-10-14T08:09:23Z</time></trkpt><trkpt lat="47.5897769071" lon="1.7420788296"><ele>100.07</ele><time>2021-10-14T08:09:32Z</time></trkpt><trkpt lat="47.5897641666" lon="1.7420592997"><ele>100.07</ele><time>2021-10-14T08:09:56Z</time></trkpt><trkpt lat="47.5897515099" lon="1.7420156300"><ele>100.07</ele><time>2021-10-14T08:10:23Z</time></trkpt><trkpt lat="47.5897267833" lon="1.7420110200"><ele>100.07</ele><time>2021-10-14T08:10:48Z</time></trkpt><trkpt lat="47.5897504203" lon="1.7419733852"><ele>99.53</ele><time>2021-10-14T08:11:14Z</time></trkpt><trkpt lat="47.5897416193" lon="1.7420356628"><ele>99.44</ele><time>2021-10-14T08:11:43Z</time></trkpt><trkpt lat="47.5896342471" lon="1.7420286220"><ele>100.01</ele><time>2021-10-14T08:12:08Z</time></trkpt><trkpt lat="47.5894001406" lon="1.7420608923"><ele>99.64</ele><time>2021-10-14T08:12:30Z</time></trkpt><trkpt lat="47.5891502760" lon="1.7420157976"><ele>99.19</ele><time>2021-10-14T08:12:57Z</time></trkpt><trkpt lat="47.5890210271" lon="1.7419933341"><ele>99.11</ele><time>2021-10-14T08:13:17Z</time></trkpt><trkpt lat="47.5888190232" lon="1.7419828568"><ele>98.80</ele><time>2021-10-14T08:13:35Z</time></trkpt><trkpt lat="47.5886438414" lon="1.7419438809"><ele>98.86</ele><time>2021-10-14T08:13:52Z</time></trkpt><trkpt lat="47.5884767063" lon="1.7419562861"><ele>98.64</ele><time>2021-10-14T08:14:11Z</time></trkpt><trkpt lat="47.5881976727" lon="1.7419341579"><ele>98.42</ele><time>2021-10-14T08:14:36Z</time></trkpt><trkpt lat="47.5878971815" lon="1.7419435456"><ele>97.91</ele><time>2021-10-14T08:15:02Z</time></trkpt><trkpt lat="47.5877734646" lon="1.7419070844"><ele>98.21</ele><time>2021-10-14T08:15:10Z</time></trkpt><trkpt lat="47.5875644200" lon="1.7418850400"><ele>98.21</ele><time>2021-10-14T08:15:25Z</time></trkpt><trkpt lat="47.5873832032" lon="1.7418682761"><ele>98.04</ele><time>2021-10-14T08:15:39Z</time></trkpt><trkpt lat="47.5872756634" lon="1.7418613192"><ele>98.01</ele><time>2021-10-14T08:15:48Z</time></trkpt><trkpt lat="47.5870665349" lon="1.7418495007"><ele>97.66</ele><time>2021-10-14T08:16:06Z</time></trkpt><trkpt lat="47.5867557339" lon="1.7418152187"><ele>97.64</ele><time>2021-10-14T08:16:31Z</time></trkpt><trkpt lat="47.5866056141" lon="1.7418189906"><ele>97.57</ele><time>2021-10-14T08:16:42Z</time></trkpt><trkpt lat="47.5865925383" lon="1.7418218404"><ele>97.57</ele><time>2021-10-14T08:16:43Z</time></trkpt><trkpt lat="47.5863901153" lon="1.7417942639"><ele>97.30</ele><time>2021-10-14T08:17:00Z</time></trkpt><trkpt lat="47.5863437634" lon="1.7418024782"><ele>97.16</ele><time>2021-10-14T08:17:04Z</time></trkpt><trkpt lat="47.5861737784" lon="1.7418402806"><ele>96.99</ele><time>2021-10-14T08:17:17Z</time></trkpt><trkpt lat="47.5859542564" lon="1.7418300547"><ele>96.95</ele><time>2021-10-14T08:17:37Z</time></trkpt><trkpt lat="47.5857181381" lon="1.7418106925"><ele>96.43</ele><time>2021-10-14T08:17:57Z</time></trkpt><trkpt lat="47.5856419466" lon="1.7417874746"><ele>96.44</ele><time>2021-10-14T08:18:02Z</time></trkpt><trkpt lat="47.5853633322" lon="1.7417716328"><ele>96.16</ele><time>2021-10-14T08:18:25Z</time></trkpt><trkpt lat="47.5851118751" lon="1.7417164799"><ele>96.12</ele><time>2021-10-14T08:18:50Z</time></trkpt><trkpt lat="47.5847961288" lon="1.7416889872"><ele>95.94</ele><time>2021-10-14T08:19:15Z</time></trkpt><trkpt lat="47.5845261477" lon="1.7417501751"><ele>95.61</ele><time>2021-10-14T08:19:34Z</time></trkpt><trkpt lat="47.5842767023" lon="1.7417668551"><ele>95.30</ele><time>2021-10-14T08:19:52Z</time></trkpt><trkpt lat="47.5841171108" lon="1.7417993769"><ele>95.10</ele><time>2021-10-14T08:20:05Z</time></trkpt><trkpt lat="47.5839350559" lon="1.7419095151"><ele>95.01</ele><time>2021-10-14T08:20:24Z</time></trkpt><trkpt lat="47.5837449543" lon="1.7420168873"><ele>94.67</ele><time>2021-10-14T08:20:45Z</time></trkpt><trkpt lat="47.5834893901" lon="1.7422101740"><ele>94.47</ele><time>2021-10-14T08:21:09Z</time></trkpt><trkpt lat="47.5831959397" lon="1.7424110882"><ele>93.95</ele><time>2021-10-14T08:21:32Z</time></trkpt><trkpt lat="47.5830037426" lon="1.7425263394"><ele>93.61</ele><time>2021-10-14T08:21:52Z</time></trkpt><trkpt lat="47.5827459991" lon="1.7426715139"><ele>93.51</ele><time>2021-10-14T08:22:14Z</time></trkpt><trkpt lat="47.5825013313" lon="1.7427964881"><ele>92.82</ele><time>2021-10-14T08:22:36Z</time></trkpt><trkpt lat="47.5822323561" lon="1.7430118192"><ele>92.56</ele><time>2021-10-14T08:22:58Z</time></trkpt><trkpt lat="47.5820001774" lon="1.7431762721"><ele>92.11</ele><time>2021-10-14T08:23:19Z</time></trkpt><trkpt lat="47.5817541685" lon="1.7433565669"><ele>91.64</ele><time>2021-10-14T08:23:42Z</time></trkpt><trkpt lat="47.5815478899" lon="1.7435444053"><ele>91.62</ele><time>2021-10-14T08:24:03Z</time></trkpt><trkpt lat="47.5813028868" lon="1.7434944492"><ele>91.55</ele><time>2021-10-14T08:24:22Z</time></trkpt><trkpt lat="47.5811257772" lon="1.7434375361"><ele>91.72</ele><time>2021-10-14T08:24:37Z</time></trkpt><trkpt lat="47.5809328258" lon="1.7433140706"><ele>91.67</ele><time>2021-10-14T08:24:55Z</time></trkpt><trkpt lat="47.5806948636" lon="1.7432520445"><ele>91.61</ele><time>2021-10-14T08:25:14Z</time></trkpt><trkpt lat="47.5806206837" lon="1.7432769388"><ele>91.57</ele><time>2021-10-14T08:25:20Z</time></trkpt><trkpt lat="47.5805701409" lon="1.7432729993"><ele>91.58</ele><time>2021-10-14T08:25:24Z</time></trkpt><trkpt lat="47.5805540476" lon="1.7432696465"><ele>91.58</ele><time>2021-10-14T08:25:25Z</time></trkpt><trkpt lat="47.5803435780" lon="1.7433125619"><ele>91.48</ele><time>2021-10-14T08:25:40Z</time></trkpt><trkpt lat="47.5801031012" lon="1.7434027512"><ele>91.74</ele><time>2021-10-14T08:25:59Z</time></trkpt><trkpt lat="47.5799056236" lon="1.7435076926"><ele>92.02</ele><time>2021-10-14T08:26:16Z</time></trkpt><trkpt lat="47.5797508936" lon="1.7435986362"><ele>91.99</ele><time>2021-10-14T08:26:32Z</time></trkpt><trkpt lat="47.5795571040" lon="1.7437319923"><ele>92.00</ele><time>2021-10-14T08:26:51Z</time></trkpt><trkpt lat="47.5795127638" lon="1.7437645141"><ele>92.00</ele><time>2021-10-14T08:26:55Z</time></trkpt><trkpt lat="47.5795009453" lon="1.7437797692"><ele>92.00</ele><time>2021-10-14T08:26:56Z</time></trkpt><trkpt lat="47.5793178007" lon="1.7439017259"><ele>91.61</ele><time>2021-10-14T08:27:12Z</time></trkpt><trkpt lat="47.5791457202" lon="1.7440368421"><ele>91.33</ele><time>2021-10-14T08:27:27Z</time></trkpt><trkpt lat="47.5790048204" lon="1.7442924064"><ele>91.57</ele><time>2021-10-14T08:27:46Z</time></trkpt><trkpt lat="47.5788207538" lon="1.7446900439"><ele>91.57</ele><time>2021-10-14T08:28:15Z</time></trkpt><trkpt lat="47.5786527805" lon="1.7450795509"><ele>91.36</ele><time>2021-10-14T08:28:40Z</time></trkpt><trkpt lat="47.5785412174" lon="1.7453703191"><ele>91.35</ele><time>2021-10-14T08:28:59Z</time></trkpt><trkpt lat="47.5785277225" lon="1.7456046771"><ele>91.47</ele><time>2021-10-14T08:29:11Z</time></trkpt><trkpt lat="47.5785776787" lon="1.7458952777"><ele>91.23</ele><time>2021-10-14T08:29:28Z</time></trkpt><trkpt lat="47.5787225179" lon="1.7462512571"><ele>91.18</ele><time>2021-10-14T08:29:51Z</time></trkpt><trkpt lat="47.5788867194" lon="1.7465609685"><ele>91.44</ele><time>2021-10-14T08:30:15Z</time></trkpt><trkpt lat="47.5790578779" lon="1.7468885332"><ele>92.08</ele><time>2021-10-14T08:30:39Z</time></trkpt><trkpt lat="47.5792173017" lon="1.7472223844"><ele>91.44</ele><time>2021-10-14T08:31:02Z</time></trkpt><trkpt lat="47.5793308765" lon="1.7475336045"><ele>91.39</ele><time>2021-10-14T08:31:19Z</time></trkpt><trkpt lat="47.5794340577" lon="1.7477832176"><ele>91.51</ele><time>2021-10-14T08:31:37Z</time></trkpt><trkpt lat="47.5795897935" lon="1.7481350061"><ele>91.99</ele><time>2021-10-14T08:32:00Z</time></trkpt><trkpt lat="47.5796981715" lon="1.7484224215"><ele>92.26</ele><time>2021-10-14T08:32:18Z</time></trkpt><trkpt lat="47.5798054598" lon="1.7486774828"><ele>92.23</ele><time>2021-10-14T08:32:34Z</time></trkpt><trkpt lat="47.5799235608" lon="1.7489801534"><ele>92.21</ele><time>2021-10-14T08:32:56Z</time></trkpt><trkpt lat="47.5800721720" lon="1.7493437603"><ele>92.35</ele><time>2021-10-14T08:33:21Z</time></trkpt><trkpt lat="47.5802312605" lon="1.7496020067"><ele>92.86</ele><time>2021-10-14T08:33:41Z</time></trkpt><trkpt lat="47.5804108847" lon="1.7498777714"><ele>93.54</ele><time>2021-10-14T08:34:03Z</time></trkpt><trkpt lat="47.5806314126" lon="1.7502448149"><ele>94.18</ele><time>2021-10-14T08:34:25Z</time></trkpt><trkpt lat="47.5808031578" lon="1.7504945118"><ele>93.24</ele><time>2021-10-14T08:34:43Z</time></trkpt><trkpt lat="47.5809383579" lon="1.7507313844"><ele>92.52</ele><time>2021-10-14T08:35:01Z</time></trkpt><trkpt lat="47.5811181497" lon="1.7509504873"><ele>91.81</ele><time>2021-10-14T08:35:19Z</time></trkpt><trkpt lat="47.5812666770" lon="1.7511684168"><ele>91.63</ele><time>2021-10-14T08:35:36Z</time></trkpt><trkpt lat="47.5813512504" lon="1.7514577601"><ele>91.77</ele><time>2021-10-14T08:35:52Z</time></trkpt><trkpt lat="47.5813957583" lon="1.7517493665"><ele>91.73</ele><time>2021-10-14T08:36:06Z</time></trkpt><trkpt lat="47.5814582035" lon="1.7520537134"><ele>91.77</ele><time>2021-10-14T08:36:24Z</time></trkpt><trkpt lat="47.5815254264" lon="1.7522904184"><ele>91.76</ele><time>2021-10-14T08:36:42Z</time></trkpt><trkpt lat="47.5815861113" lon="1.7526212521"><ele>91.64</ele><time>2021-10-14T08:37:03Z</time></trkpt><trkpt lat="47.5816786475" lon="1.7529404350"><ele>91.61</ele><time>2021-10-14T08:37:23Z</time></trkpt><trkpt lat="47.5817969162" lon="1.7532780580"><ele>92.03</ele><time>2021-10-14T08:37:42Z</time></trkpt><trkpt lat="47.5818754546" lon="1.7535285093"><ele>92.54</ele><time>2021-10-14T08:37:57Z</time></trkpt><trkpt lat="47.5819913764" lon="1.7538717482"><ele>93.11</ele><time>2021-10-14T08:38:21Z</time></trkpt><trkpt lat="47.5820997544" lon="1.7541307490"><ele>92.99</ele><time>2021-10-14T08:38:40Z</time></trkpt><trkpt lat="47.5822316017" lon="1.7544466630"><ele>93.06</ele><time>2021-10-14T08:38:58Z</time></trkpt><trkpt lat="47.5822271593" lon="1.7544920091"><ele>93.13</ele><time>2021-10-14T08:39:01Z</time></trkpt><trkpt lat="47.5822493713" lon="1.7545562144"><ele>93.14</ele><time>2021-10-14T08:39:09Z</time></trkpt><trkpt lat="47.5823199470" lon="1.7548233457"><ele>93.36</ele><time>2021-10-14T08:39:24Z</time></trkpt><trkpt lat="47.5823460985" lon="1.7551018763"><ele>93.59</ele><time>2021-10-14T08:39:40Z</time></trkpt><trkpt lat="47.5823699031" lon="1.7553581111"><ele>93.84</ele><time>2021-10-14T08:39:56Z</time></trkpt><trkpt lat="47.5823866669" lon="1.7556318641"><ele>94.10</ele><time>2021-10-14T08:40:12Z</time></trkpt><trkpt lat="47.5824358687" lon="1.7559023481"><ele>94.26</ele><time>2021-10-14T08:40:26Z</time></trkpt><trkpt lat="47.5824416522" lon="1.7559982371"><ele>94.31</ele><time>2021-10-14T08:40:31Z</time></trkpt><trkpt lat="47.5824651215" lon="1.7562727444"><ele>94.54</ele><time>2021-10-14T08:40:45Z</time></trkpt><trkpt lat="47.5824685581" lon="1.7565838806"><ele>95.07</ele><time>2021-10-14T08:41:02Z</time></trkpt><trkpt lat="47.5825113058" lon="1.7568736430"><ele>95.46</ele><time>2021-10-14T08:41:20Z</time></trkpt><trkpt lat="47.5825326797" lon="1.7571449652"><ele>95.79</ele><time>2021-10-14T08:41:37Z</time></trkpt><trkpt lat="47.5825749245" lon="1.7575046327"><ele>95.85</ele><time>2021-10-14T08:41:56Z</time></trkpt><trkpt lat="47.5825983100" lon="1.7577900365"><ele>96.18</ele><time>2021-10-14T08:42:11Z</time></trkpt><trkpt lat="47.5826140679" lon="1.7581445072"><ele>96.65</ele><time>2021-10-14T08:42:30Z</time></trkpt><trkpt lat="47.5826194324" lon="1.7584227864"><ele>96.95</ele><time>2021-10-14T08:42:45Z</time></trkpt><trkpt lat="47.5826307479" lon="1.7586509418"><ele>97.14</ele><time>2021-10-14T08:42:56Z</time></trkpt><trkpt lat="47.5826480146" lon="1.7589642573"><ele>97.72</ele><time>2021-10-14T08:43:12Z</time></trkpt><trkpt lat="47.5827034190" lon="1.7593022995"><ele>98.37</ele><time>2021-10-14T08:43:29Z</time></trkpt><trkpt lat="47.5827309955" lon="1.7595826741"><ele>98.86</ele><time>2021-10-14T08:43:44Z</time></trkpt><trkpt lat="47.5827412214" lon="1.7598316167"><ele>99.24</ele><time>2021-10-14T08:43:57Z</time></trkpt><trkpt lat="47.5827569794" lon="1.7601596005"><ele>99.87</ele><time>2021-10-14T08:44:14Z</time></trkpt><trkpt lat="47.5827918481" lon="1.7605342716"><ele>100.57</ele><time>2021-10-14T08:44:33Z</time></trkpt><trkpt lat="47.5828090310" lon="1.7608407140"><ele>101.04</ele><time>2021-10-14T08:44:49Z</time></trkpt><trkpt lat="47.5829395372" lon="1.7611737270"><ele>101.13</ele><time>2021-10-14T08:45:11Z</time></trkpt><trkpt lat="47.5831254479" lon="1.7615087517"><ele>101.09</ele><time>2021-10-14T08:45:34Z</time></trkpt><trkpt lat="47.5832261983" lon="1.7617078219"><ele>101.30</ele><time>2021-10-14T08:45:48Z</time></trkpt><trkpt lat="47.5832361728" lon="1.7617204785"><ele>101.30</ele><time>2021-10-14T08:45:49Z</time></trkpt><trkpt lat="47.5832461473" lon="1.7617338896"><ele>101.30</ele><time>2021-10-14T08:45:50Z</time></trkpt><trkpt lat="47.5832557026" lon="1.7617454566"><ele>101.30</ele><time>2021-10-14T08:45:51Z</time></trkpt><trkpt lat="47.5832636654" lon="1.7617579456"><ele>101.30</ele><time>2021-10-14T08:45:52Z</time></trkpt><trkpt lat="47.5834244303" lon="1.7620063014"><ele>101.23</ele><time>2021-10-14T08:46:10Z</time></trkpt><trkpt lat="47.5835945830" lon="1.7623057868"><ele>101.52</ele><time>2021-10-14T08:46:31Z</time></trkpt><trkpt lat="47.5837871153" lon="1.7626482714"><ele>101.52</ele><time>2021-10-14T08:46:53Z</time></trkpt><trkpt lat="47.5839273445" lon="1.7628936935"><ele>101.54</ele><time>2021-10-14T08:47:10Z</time></trkpt><trkpt lat="47.5840388238" lon="1.7632426322"><ele>101.49</ele><time>2021-10-14T08:47:29Z</time></trkpt><trkpt lat="47.5841030292" lon="1.7636282835"><ele>101.96</ele><time>2021-10-14T08:47:50Z</time></trkpt><trkpt lat="47.5841503870" lon="1.7638907209"><ele>102.11</ele><time>2021-10-14T08:48:05Z</time></trkpt><trkpt lat="47.5841995887" lon="1.7641493864"><ele>102.53</ele><time>2021-10-14T08:48:20Z</time></trkpt><trkpt lat="47.5842610281" lon="1.7644486204"><ele>103.08</ele><time>2021-10-14T08:48:37Z</time></trkpt><trkpt lat="47.5843202043" lon="1.7647195235"><ele>103.21</ele><time>2021-10-14T08:48:53Z</time></trkpt><trkpt lat="47.5843899418" lon="1.7650842201"><ele>103.02</ele><time>2021-10-14T08:49:12Z</time></trkpt><trkpt lat="47.5844419096" lon="1.7654173169"><ele>102.86</ele><time>2021-10-14T08:49:30Z</time></trkpt><trkpt lat="47.5844617747" lon="1.7654914968"><ele>102.87</ele><time>2021-10-14T08:49:33Z</time></trkpt><trkpt lat="47.5844959728" lon="1.7657836061"><ele>102.97</ele><time>2021-10-14T08:49:48Z</time></trkpt><trkpt lat="47.5845585018" lon="1.7660797387"><ele>103.13</ele><time>2021-10-14T08:50:06Z</time></trkpt><trkpt lat="47.5846283231" lon="1.7664487101"><ele>103.21</ele><time>2021-10-14T08:50:27Z</time></trkpt><trkpt lat="47.5847120583" lon="1.7667980678"><ele>103.63</ele><time>2021-10-14T08:50:49Z</time></trkpt><trkpt lat="47.5847420655" lon="1.7671638541"><ele>104.22</ele><time>2021-10-14T08:51:08Z</time></trkpt><trkpt lat="47.5848340988" lon="1.7675568815"><ele>104.32</ele><time>2021-10-14T08:51:29Z</time></trkpt><trkpt lat="47.5849124696" lon="1.7679479811"><ele>103.87</ele><time>2021-10-14T08:51:49Z</time></trkpt><trkpt lat="47.5849681254" lon="1.7683396675"><ele>103.28</ele><time>2021-10-14T08:52:09Z</time></trkpt><trkpt lat="47.5850581471" lon="1.7686310224"><ele>103.28</ele><time>2021-10-14T08:52:24Z</time></trkpt><trkpt lat="47.5850648526" lon="1.7686550785"><ele>103.28</ele><time>2021-10-14T08:52:25Z</time></trkpt><trkpt lat="47.5850711390" lon="1.7686785478"><ele>103.28</ele><time>2021-10-14T08:52:26Z</time></trkpt><trkpt lat="47.5850748271" lon="1.7687004246"><ele>103.28</ele><time>2021-10-14T08:52:27Z</time></trkpt><trkpt lat="47.5850939378" lon="1.7688078806"><ele>103.30</ele><time>2021-10-14T08:52:33Z</time></trkpt><trkpt lat="47.5851391163" lon="1.7691009119"><ele>103.50</ele><time>2021-10-14T08:52:50Z</time></trkpt><trkpt lat="47.5852204207" lon="1.7694716435"><ele>103.62</ele><time>2021-10-14T08:53:08Z</time></trkpt><trkpt lat="47.5852348376" lon="1.7695437279"><ele>103.68</ele><time>2021-10-14T08:53:12Z</time></trkpt><trkpt lat="47.5852635875" lon="1.7697017267"><ele>103.71</ele><time>2021-10-14T08:53:20Z</time></trkpt><trkpt lat="47.5852713827" lon="1.7697204184"><ele>103.71</ele><time>2021-10-14T08:53:21Z</time></trkpt><trkpt lat="47.5852756575" lon="1.7697428819"><ele>103.71</ele><time>2021-10-14T08:53:22Z</time></trkpt><trkpt lat="47.5852799322" lon="1.7697666865"><ele>103.71</ele><time>2021-10-14T08:53:23Z</time></trkpt><trkpt lat="47.5852855481" lon="1.7697899882"><ele>103.71</ele><time>2021-10-14T08:53:24Z</time></trkpt><trkpt lat="47.5853109453" lon="1.7700770684"><ele>103.71</ele><time>2021-10-14T08:53:41Z</time></trkpt><trkpt lat="47.5853298884" lon="1.7704234924"><ele>103.89</ele><time>2021-10-14T08:54:00Z</time></trkpt><trkpt lat="47.5853587221" lon="1.7705221474"><ele>103.98</ele><time>2021-10-14T08:54:06Z</time></trkpt><trkpt lat="47.5853694510" lon="1.7705392465"><ele>103.99</ele><time>2021-10-14T08:54:07Z</time></trkpt><trkpt lat="47.5853783358" lon="1.7705576029"><ele>104.01</ele><time>2021-10-14T08:54:08Z</time></trkpt><trkpt lat="47.5855507515" lon="1.7708378099"><ele>104.51</ele><time>2021-10-14T08:54:27Z</time></trkpt><trkpt lat="47.5857162103" lon="1.7710910272"><ele>104.87</ele><time>2021-10-14T08:54:45Z</time></trkpt><trkpt lat="47.5859241653" lon="1.7714202683"><ele>105.22</ele><time>2021-10-14T08:55:07Z</time></trkpt><trkpt lat="47.5861172844" lon="1.7717397865"><ele>105.14</ele><time>2021-10-14T08:55:28Z</time></trkpt><trkpt lat="47.5863128342" lon="1.7719952669"><ele>105.51</ele><time>2021-10-14T08:55:48Z</time></trkpt><trkpt lat="47.5865234714" lon="1.7722585425"><ele>105.58</ele><time>2021-10-14T08:56:09Z</time></trkpt><trkpt lat="47.5867095497" lon="1.7725400068"><ele>105.67</ele><time>2021-10-14T08:56:29Z</time></trkpt><trkpt lat="47.5868875813" lon="1.7727917153"><ele>105.73</ele><time>2021-10-14T08:56:48Z</time></trkpt><trkpt lat="47.5870366115" lon="1.7730578408"><ele>105.71</ele><time>2021-10-14T08:57:07Z</time></trkpt><trkpt lat="47.5871959515" lon="1.7733216193"><ele>105.82</ele><time>2021-10-14T08:57:25Z</time></trkpt><trkpt lat="47.5873353425" lon="1.7735417280"><ele>106.14</ele><time>2021-10-14T08:57:41Z</time></trkpt><trkpt lat="47.5873417128" lon="1.7735547200"><ele>106.11</ele><time>2021-10-14T08:57:42Z</time></trkpt><trkpt lat="47.5873481669" lon="1.7735682987"><ele>106.09</ele><time>2021-10-14T08:57:43Z</time></trkpt><trkpt lat="47.5873556267" lon="1.7735823803"><ele>106.08</ele><time>2021-10-14T08:57:44Z</time></trkpt><trkpt lat="47.5873635896" lon="1.7735959589"><ele>106.08</ele><time>2021-10-14T08:57:45Z</time></trkpt><trkpt lat="47.5873728935" lon="1.7736101244"><ele>106.09</ele><time>2021-10-14T08:57:46Z</time></trkpt><trkpt lat="47.5873816945" lon="1.7736232001"><ele>106.11</ele><time>2021-10-14T08:57:47Z</time></trkpt><trkpt lat="47.5873918366" lon="1.7736370303"><ele>106.13</ele><time>2021-10-14T08:57:48Z</time></trkpt><trkpt lat="47.5874019787" lon="1.7736516986"><ele>106.16</ele><time>2021-10-14T08:57:49Z</time></trkpt><trkpt lat="47.5874111988" lon="1.7736677080"><ele>106.18</ele><time>2021-10-14T08:57:50Z</time></trkpt><trkpt lat="47.5875149667" lon="1.7738627549"><ele>106.20</ele><time>2021-10-14T08:58:04Z</time></trkpt><trkpt lat="47.5876665954" lon="1.7741905712"><ele>106.24</ele><time>2021-10-14T08:58:25Z</time></trkpt><trkpt lat="47.5878087524" lon="1.7744760588"><ele>105.93</ele><time>2021-10-14T08:58:43Z</time></trkpt><trkpt lat="47.5878683478" lon="1.7748253327"><ele>106.38</ele><time>2021-10-14T08:59:02Z</time></trkpt><trkpt lat="47.5877063256" lon="1.7750758678"><ele>106.21</ele><time>2021-10-14T08:59:22Z</time></trkpt><trkpt lat="47.5875615701" lon="1.7753342818"><ele>106.19</ele><time>2021-10-14T08:59:39Z</time></trkpt><trkpt lat="47.5874210056" lon="1.7755530495"><ele>106.08</ele><time>2021-10-14T08:59:55Z</time></trkpt><trkpt lat="47.5872248691" lon="1.7758354358"><ele>106.09</ele><time>2021-10-14T09:00:17Z</time></trkpt><trkpt lat="47.5870942790" lon="1.7760295607"><ele>105.94</ele><time>2021-10-14T09:00:33Z</time></trkpt><trkpt lat="47.5868766010" lon="1.7763189878"><ele>105.77</ele><time>2021-10-14T09:00:55Z</time></trkpt><trkpt lat="47.5866914447" lon="1.7765855324"><ele>105.49</ele><time>2021-10-14T09:01:15Z</time></trkpt><trkpt lat="47.5865808874" lon="1.7767865304"><ele>105.46</ele><time>2021-10-14T09:01:28Z</time></trkpt><trkpt lat="47.5864137523" lon="1.7770899553"><ele>105.67</ele><time>2021-10-14T09:01:49Z</time></trkpt><trkpt lat="47.5862857606" lon="1.7773703299"><ele>105.58</ele><time>2021-10-14T09:02:07Z</time></trkpt><trkpt lat="47.5860997662" lon="1.7776690610"><ele>105.94</ele><time>2021-10-14T09:02:28Z</time></trkpt><trkpt lat="47.5859655719" lon="1.7779370304"><ele>105.95</ele><time>2021-10-14T09:02:46Z</time></trkpt><trkpt lat="47.5858046394" lon="1.7782272957"><ele>106.41</ele><time>2021-10-14T09:03:06Z</time></trkpt><trkpt lat="47.5856546871" lon="1.7784890626"><ele>106.82</ele><time>2021-10-14T09:03:25Z</time></trkpt><trkpt lat="47.5855440460" lon="1.7786837742"><ele>107.08</ele><time>2021-10-14T09:03:40Z</time></trkpt><trkpt lat="47.5853868853" lon="1.7788864486"><ele>107.42</ele><time>2021-10-14T09:03:57Z</time></trkpt><trkpt lat="47.5852359273" lon="1.7789773084"><ele>107.71</ele><time>2021-10-14T09:04:11Z</time></trkpt><trkpt lat="47.5850037485" lon="1.7790913023"><ele>107.62</ele><time>2021-10-14T09:04:30Z</time></trkpt><trkpt lat="47.5848957896" lon="1.7791672423"><ele>107.62</ele><time>2021-10-14T09:04:40Z</time></trkpt><trkpt lat="47.5848877430" lon="1.7791710980"><ele>107.65</ele><time>2021-10-14T09:04:41Z</time></trkpt><trkpt lat="47.5848480128" lon="1.7792889476"><ele>107.68</ele><time>2021-10-14T09:04:49Z</time></trkpt><trkpt lat="47.5848393794" lon="1.7794114910"><ele>107.81</ele><time>2021-10-14T09:05:09Z</time></trkpt><trkpt lat="47.5848496053" lon="1.7794186994"><ele>107.83</ele><time>2021-10-14T09:05:31Z</time></trkpt></trkseg></trk></gpx>
